createdAt,value
2023-04-08T00:01:22.196Z,17.6
2023-04-08T00:06:28.533Z,1.9
2023-04-08T00:11:38.921Z,14.2
2023-04-08T00:16:31.350Z,1.7
2023-04-08T00:21:46.926Z,13.6
2023-04-08T00:28:06.488Z,15.2
2023-04-08T00:32:28.821Z,14.7
2023-04-08T00:37:47.170Z,15.3
2023-04-08T00:42:13.558Z,14.6
2023-04-08T00:47:48.015Z,12.0
2023-04-08T00:52:26.305Z,12.7
2023-04-08T00:57:32.675Z,14.5
2023-04-08T01:02:39.207Z,12.5
2023-04-08T01:07:45.483Z,11.7
2023-04-08T01:12:41.819Z,14.9
2023-04-08T01:17:58.259Z,13.8
2023-04-08T01:23:04.662Z,12.7
2023-04-08T01:28:31.053Z,17.0
2023-04-08T01:33:17.521Z,11.1
2023-04-08T01:38:23.911Z,12.7
2023-04-08T01:43:50.313Z,12.6
2023-04-08T01:48:36.647Z,13.6
2023-04-08T01:53:33.051Z,14.3
2023-04-08T01:58:49.589Z,13.3
2023-04-08T02:03:59.856Z,16.9
2023-04-08T02:09:06.204Z,15.8
2023-04-08T02:14:22.667Z,12.0
2023-04-08T02:19:16.212Z,16.4
2023-04-08T02:24:22.625Z,12.1
2023-04-08T02:29:49.019Z,13.3
2023-04-08T02:34:49.378Z,11.8
2023-04-08T02:39:41.821Z,11.6
2023-04-08T02:44:49.348Z,11.5
2023-04-08T02:49:55.953Z,13.3
2023-04-08T02:54:52.346Z,13.5
2023-04-08T03:00:13.281Z,13.1
2023-04-08T03:05:15.659Z,13.5
2023-04-08T03:10:36.067Z,14.7
2023-04-08T03:15:52.439Z,10.7
2023-04-08T03:20:58.873Z,14.0
2023-04-08T03:26:05.245Z,11.5
2023-04-08T03:31:11.705Z,15.6
2023-04-08T03:35:54.118Z,12.9
2023-04-08T03:41:00.412Z,11.6
2023-04-08T03:46:10.923Z,13.0
2023-04-08T03:51:03.275Z,11.3
2023-04-08T03:56:23.710Z,15.5
2023-04-08T04:01:26.080Z,11.7
2023-04-08T04:07:06.506Z,12.1
2023-04-08T04:11:38.836Z,14.1
2023-04-08T04:17:13.292Z,12.7
2023-04-08T04:21:51.593Z,12.7
2023-04-08T04:26:58.076Z,12.3
2023-04-08T04:32:08.474Z,15.0
2023-04-08T04:37:00.842Z,15.8
2023-04-08T04:42:21.251Z,13.1
2023-04-08T04:47:23.675Z,13.5
2023-04-08T04:52:38.034Z,22.4
2023-04-08T04:57:36.384Z,24.5
2023-04-08T05:02:42.922Z,16.9
2023-04-08T05:07:49.287Z,15.8
2023-04-08T05:12:55.641Z,16.3
2023-04-08T05:18:02.073Z,15.0
2023-04-08T05:23:08.468Z,15.0
2023-04-08T05:28:34.864Z,15.8
2023-04-08T05:33:21.603Z,13.3
2023-04-08T05:38:28.123Z,15.3
2023-04-08T05:43:34.484Z,16.4
2023-04-08T05:48:30.844Z,15.2
2023-04-08T05:53:47.268Z,15.9
2023-04-08T06:00:09.777Z,18.2
2023-04-08T06:04:00.165Z,13.6
2023-04-08T06:09:06.653Z,15.8
2023-04-08T06:14:02.977Z,13.4
2023-04-08T06:19:19.499Z,14.4
2023-04-08T06:24:25.772Z,16.8
2023-04-08T06:29:41.157Z,16.5
2023-04-08T06:34:42.110Z,28.6
2023-04-08T06:39:48.717Z,13.1
2023-04-08T06:44:55.076Z,18.5
2023-04-08T06:49:51.577Z,12.6
2023-04-08T06:55:07.975Z,2.2
2023-04-08T07:00:14.346Z,3.8
2023-04-08T07:05:44.784Z,4.6
2023-04-08T07:10:17.354Z,16.2
2023-04-08T07:15:33.483Z,16.2
2023-04-08T07:20:40.106Z,16.8
2023-04-08T07:25:46.606Z,13.8
2023-04-08T07:30:42.974Z,14.9
2023-04-08T07:35:59.434Z,14.9
2023-04-08T07:40:55.781Z,15.3
2023-04-08T07:46:12.229Z,17.6
2023-04-08T07:51:20.438Z,16.5
2023-04-08T07:56:24.926Z,21.0
2023-04-08T08:01:21.298Z,18.0
2023-04-08T08:06:37.654Z,16.5
2023-04-08T08:11:34.155Z,20.4
2023-04-08T08:21:58.884Z,13.7
2023-04-08T08:26:56.281Z,16.5
2023-04-08T08:32:12.660Z,19.2
2023-04-08T08:37:19.024Z,17.5
2023-04-08T08:42:25.415Z,19.2
2023-04-08T08:47:21.756Z,22.6
2023-04-08T08:52:39.330Z,19.9
2023-04-08T08:57:35.809Z,17.1
2023-04-08T09:02:52.379Z,23.5
2023-04-08T09:07:58.577Z,19.7
2023-04-08T09:13:49.472Z,19.1
2023-04-08T09:18:31.355Z,17.7
2023-04-08T09:23:17.679Z,20.7
2023-04-08T09:28:24.123Z,25.7
2023-04-08T09:33:30.534Z,21.0
2023-04-08T09:39:13.010Z,20.0
2023-04-08T09:44:20.364Z,17.7
2023-04-08T09:51:33.733Z,20.0
2023-04-08T09:55:38.949Z,19.9
2023-04-08T10:00:21.337Z,20.6
2023-04-08T10:05:29.275Z,25.0
2023-04-08T10:10:39.295Z,31.7
2023-04-08T10:16:29.853Z,29.7
2023-04-08T10:21:13.690Z,30.7
2023-04-08T10:26:00.091Z,24.5
2023-04-08T10:31:06.398Z,27.4
2023-04-08T10:36:12.779Z,26.3
2023-04-08T10:41:39.245Z,25.2
2023-04-08T10:47:19.876Z,22.6
2023-04-08T10:51:22.136Z,24.8
2023-04-08T11:01:46.613Z,30.3
2023-04-08T11:06:42.841Z,24.4
2023-04-08T11:11:49.219Z,25.2
2023-04-08T11:17:06.773Z,28.8
2023-04-08T11:22:13.248Z,27.8
2023-04-08T11:27:09.589Z,26.0
2023-04-08T11:33:46.115Z,34.0
2023-04-08T11:37:32.360Z,28.4
2023-04-08T11:42:38.751Z,28.3
2023-04-08T11:47:45.688Z,30.8
2023-04-08T11:52:52.290Z,29.8
2023-04-08T11:57:58.639Z,31.6
2023-04-08T12:03:05.147Z,27.9
2023-04-08T12:08:11.560Z,28.7
2023-04-08T12:13:18.001Z,29.9
2023-04-08T12:19:02.418Z,33.2
2023-04-08T12:23:30.768Z,35.8
2023-04-08T12:28:51.165Z,39.0
2023-04-08T12:34:23.669Z,31.8
2023-04-08T12:39:34.178Z,35.4
2023-04-08T12:44:50.583Z,40.1
2023-04-08T12:49:04.714Z,45.5
2023-04-08T12:54:53.455Z,36.5
2023-04-08T12:59:17.319Z,39.0
2023-04-08T13:05:02.755Z,35.8
2023-04-08T13:09:53.101Z,43.3
2023-04-08T13:14:27.633Z,41.2
2023-04-08T13:20:47.119Z,43.0
2023-04-08T13:24:49.390Z,46.4
2023-04-08T13:30:16.828Z,45.6
2023-04-08T13:35:23.183Z,43.0
2023-04-08T13:40:09.797Z,69.5
2023-04-08T13:45:16.185Z,42.7
2023-04-08T13:50:22.581Z,41.3
2023-04-08T13:56:13.008Z,34.1
2023-04-08T14:00:49.334Z,42.6
2023-04-08T14:05:41.947Z,41.1
2023-04-08T14:10:48.315Z,41.2
2023-04-08T14:15:53.772Z,36.2
2023-04-08T14:21:25.189Z,38.1
2023-04-08T14:26:21.585Z,57.6
2023-04-08T14:31:13.924Z,47.5
2023-04-08T14:36:44.379Z,42.5
2023-04-08T14:41:26.777Z,39.2
2023-04-08T14:46:53.234Z,55.7
2023-04-08T14:51:59.611Z,44.4
2023-04-08T14:56:45.933Z,52.0
2023-04-08T15:01:52.396Z,42.0
2023-04-08T15:06:58.685Z,38.7
2023-04-08T15:12:05.212Z,43.4
2023-04-08T15:18:05.718Z,33.7
2023-04-08T15:22:17.974Z,40.4
2023-04-08T15:34:37.644Z,43.0
2023-04-08T15:39:34.995Z,36.4
2023-04-08T15:45:15.555Z,39.5
2023-04-08T15:50:02.070Z,34.2
2023-04-08T15:55:04.425Z,38.9
2023-04-08T16:00:30.917Z,37.6
2023-04-08T16:05:17.272Z,35.6
2023-04-08T16:11:07.964Z,34.5
2023-04-08T16:15:30.223Z,34.5
2023-04-08T16:20:36.655Z,34.5
2023-04-08T16:25:42.979Z,30.4
2023-04-08T16:30:39.352Z,38.8
2023-04-08T16:35:45.813Z,38.9
2023-04-08T16:40:52.123Z,28.7
2023-04-08T16:46:08.547Z,32.1
2023-04-08T16:51:04.904Z,38.7
2023-04-08T16:56:11.388Z,32.6
2023-04-08T17:01:41.867Z,36.6
2023-04-08T17:06:34.332Z,32.8
2023-04-08T17:12:04.718Z,28.7
2023-04-08T17:16:47.149Z,36.6
2023-04-08T17:21:43.460Z,51.0
2023-04-08T17:26:59.897Z,38.6
2023-04-08T17:31:56.445Z,43.8
2023-04-08T17:37:13.039Z,40.8
2023-04-08T17:42:19.400Z,38.3
2023-04-08T17:47:45.964Z,30.3
2023-04-08T17:52:32.296Z,34.1
2023-04-08T17:57:38.712Z,51.9
2023-04-08T18:02:45.863Z,42.4
2023-04-08T18:08:15.568Z,39.1
2023-04-08T18:13:17.953Z,50.0
2023-04-08T18:18:28.348Z,38.8
2023-04-08T18:23:30.758Z,40.1
2023-04-08T18:28:17.051Z,47.1
2023-04-08T18:33:13.550Z,40.7
2023-04-08T18:38:29.969Z,29.7
2023-04-08T18:43:36.376Z,36.9
2023-04-08T18:48:42.742Z,36.0
2023-04-08T18:53:49.226Z,43.2
2023-04-08T18:59:19.582Z,34.3
2023-04-08T19:04:02.028Z,34.3
2023-04-08T19:09:28.342Z,40.6
2023-04-08T19:14:14.683Z,40.7
2023-04-08T19:19:24.644Z,40.2
2023-04-08T19:25:15.085Z,36.8
2023-04-08T19:30:01.442Z,34.5
2023-04-08T19:35:45.949Z,27.3
2023-04-08T19:39:50.142Z,33.0
2023-04-08T19:45:20.570Z,32.8
2023-04-08T19:49:52.895Z,29.2
2023-04-08T19:55:29.465Z,30.2
2023-04-08T20:00:59.963Z,40.1
2023-04-08T20:05:22.257Z,32.4
2023-04-08T20:10:18.636Z,38.2
2023-04-08T20:15:35.078Z,48.7
2023-04-08T20:20:41.420Z,32.1
2023-04-08T20:25:47.904Z,28.7
2023-04-08T20:31:18.396Z,37.0
2023-04-08T20:36:00.712Z,29.9
2023-04-08T20:41:07.643Z,29.4
2023-04-08T20:46:14.151Z,31.0
2023-04-08T20:51:34.640Z,27.5
2023-04-08T20:56:16.960Z,36.3
2023-04-08T21:01:33.402Z,31.6
2023-04-08T21:07:23.858Z,41.7
2023-04-08T21:11:46.102Z,39.3
2023-04-08T21:17:12.543Z,30.2
2023-04-08T21:22:19.066Z,37.4
2023-04-08T21:27:20.657Z,29.1
2023-04-08T21:32:33.258Z,32.6
2023-04-08T21:37:43.626Z,38.6
2023-04-08T21:42:25.981Z,35.1
2023-04-08T21:47:32.406Z,44.8
2023-04-08T21:52:39.138Z,33.6
2023-04-08T21:58:09.392Z,29.9
2023-04-08T22:02:51.792Z,32.7
2023-04-08T22:07:58.287Z,36.8
2023-04-08T22:13:04.678Z,34.9
2023-04-08T22:18:11.079Z,36.6
2023-04-08T22:24:59.653Z,37.5
2023-04-08T22:28:23.822Z,35.0
2023-04-08T22:33:30.343Z,33.2
2023-04-08T22:38:36.725Z,37.2
2023-04-08T22:44:03.148Z,33.7
2023-04-08T22:49:13.603Z,38.4
2023-04-08T22:53:56.521Z,37.9
2023-04-08T22:59:02.959Z,39.8
2023-04-08T23:04:09.326Z,32.8
2023-04-08T23:09:05.672Z,32.4
2023-04-08T23:14:46.105Z,31.9
2023-04-08T23:19:28.447Z,32.2
2023-04-08T23:24:34.844Z,35.2
2023-04-08T23:30:01.308Z,33.8
2023-04-08T23:35:15.852Z,31.6
2023-04-08T23:39:54.284Z,35.2
2023-04-08T23:45:00.570Z,34.1
2023-04-08T23:50:35.028Z,34.3
2023-04-08T23:55:13.380Z,34.6
